Time;durP1;ratioP1;P1;durP2;ratioP2;P2;SDS_P1;SDS_P2;PMS_P1;PMS_P2;Temp;Humidity;BMP_temperature;BMP_pressure;BME280_temperature;BME280_humidity;BME280_pressure;Samples;Min_cycle;Max_cycle;Signal;HPM_P1;HPM_P2
2023/09/07 00:01:06;;;;;;;3.70;2.60;;;18.90;99.90;;;;;;5051585;28;19920;-55
2023/09/07 00:03:32;;;;;;;5.82;2.83;;;18.90;99.90;;;;;;5049632;28;20418;-55
2023/09/07 00:05:57;;;;;;;4.93;2.95;;;19.00;99.90;;;;;;5060575;28;20045;-57
2023/09/07 00:08:25;;;;;;;6.22;2.88;;;19.00;99.90;;;;;;5050603;28;20124;-55
2023/09/07 00:10:51;;;;;;;7.80;2.95;;;19.00;99.90;;;;;;5051567;28;20036;-56
2023/09/07 00:13:16;;;;;;;;;;;19.10;99.90;;;;;;5050067;28;20379;-57
2023/09/07 00:15:42;;;;;;;3.20;2.72;;;19.10;99.90;;;;;;5050968;28;19963;-58
2023/09/07 00:18:08;;;;;;;3.00;2.70;;;19.10;99.90;;;;;;5051913;28;20036;-58
2023/09/07 00:20:34;;;;;;;;;;;19.10;99.90;;;;;;5051087;28;20180;-57
2023/09/07 00:23:00;;;;;;;3.75;2.58;;;19.10;99.90;;;;;;5051363;28;19920;-56
2023/09/07 00:25:26;;;;;;;5.10;2.35;;;19.20;99.90;;;;;;5051027;28;20040;-57
2023/09/07 00:27:52;;;;;;;3.28;2.35;;;19.20;99.90;;;;;;5050689;28;20029;-57
2023/09/07 00:30:17;;;;;;;4.75;2.05;;;19.20;99.90;;;;;;5050679;28;20086;-55
2023/09/07 00:32:43;;;;;;;;;;;19.20;99.90;;;;;;5052067;28;20086;-58
2023/09/07 00:35:09;;;;;;;6.97;2.58;;;19.20;99.90;;;;;;5058130;28;19916;-55
2023/09/07 00:37:37;;;;;;;8.05;3.28;;;19.20;99.90;;;;;;5055460;28;20415;-56
2023/09/07 00:40:03;;;;;;;1.95;1.55;;;19.30;99.90;;;;;;5068358;28;20103;-55
2023/09/07 00:42:29;;;;;;;3.17;1.02;;;19.20;99.90;;;;;;5066098;28;20052;-54
2023/09/07 00:44:54;;;;;;;2.15;1.20;;;19.10;99.90;;;;;;5068194;28;20162;-57
2023/09/07 00:47:21;;;;;;;2.75;1.48;;;19.00;99.90;;;;;;5066196;28;20512;-57
2023/09/07 00:49:47;;;;;;;2.90;1.00;;;18.90;99.90;;;;;;5057887;28;20051;-55
2023/09/07 00:52:13;;;;;;;3.83;1.45;;;18.90;99.90;;;;;;5069232;28;20037;-56
2023/09/07 00:54:40;;;;;;;;;;;18.80;99.90;;;;;;5064129;28;20095;-54
2023/09/07 00:57:06;;;;;;;;;;;18.80;99.90;;;;;;5054107;28;20340;-53
2023/09/07 00:59:35;;;;;;;9.30;1.27;;;18.70;99.90;;;;;;5064023;28;19916;-56
2023/09/07 01:02:00;;;;;;;2.95;1.10;;;18.70;99.90;;;;;;5058653;28;20037;-57
2023/09/07 01:04:26;;;;;;;4.35;0.95;;;18.60;99.90;;;;;;5052796;28;20071;-55
2023/09/07 01:07:15;;;;;;;4.10;1.75;;;18.50;99.90;;;;;;5063933;28;20496;-57
2023/09/07 01:09:42;;;;;;;4.25;1.48;;;18.50;99.90;;;;;;5036974;28;20057;-57
2023/09/07 01:12:10;;;;;;;2.28;1.60;;;18.40;99.90;;;;;;5050234;28;20056;-54
2023/09/07 01:14:36;;;;;;;2.72;2.22;;;18.40;99.90;;;;;;5049404;28;20029;-57
2023/09/07 01:17:03;;;;;;;;;;;18.30;99.90;;;;;;5050416;28;20037;-56
2023/09/07 01:19:29;;;;;;;3.38;0.77;;;18.30;99.90;;;;;;5049374;28;19995;-58
2023/09/07 01:21:55;;;;;;;1.50;0.63;;;18.30;99.90;;;;;;5050214;28;20493;-54
2023/09/07 01:24:21;;;;;;;3.80;1.20;;;18.10;99.90;;;;;;5051117;28;20044;-57
2023/09/07 01:26:49;;;;;;;1.90;1.10;;;18.00;99.90;;;;;;5049977;28;20094;-56
2023/09/07 01:29:16;;;;;;;1.85;1.00;;;17.90;99.90;;;;;;5050073;28;20095;-55
2023/09/07 01:31:43;;;;;;;5.45;1.80;;;17.80;99.90;;;;;;5049985;28;20041;-54
2023/09/07 01:34:08;;;;;;;2.45;1.10;;;17.80;99.90;;;;;;5050693;28;20162;-56
2023/09/07 01:36:35;;;;;;;1.55;1.00;;;17.80;99.90;;;;;;5049792;28;20576;-55
2023/09/07 01:39:00;;;;;;;;;;;17.70;99.90;;;;;;5049304;28;20556;-54
2023/09/07 01:41:26;;;;;;;0.73;0.60;;;17.70;99.90;;;;;;5050267;28;19916;-56
2023/09/07 01:43:52;;;;;;;2.13;0.80;;;17.60;99.90;;;;;;5048922;28;20055;-54
2023/09/07 01:46:18;;;;;;;5.20;1.23;;;17.50;99.90;;;;;;5049602;28;20055;-57
2023/09/07 01:48:43;;;;;;;0.98;0.88;;;17.40;99.90;;;;;;5061881;28;20032;-54
2023/09/07 01:51:09;;;;;;;3.42;1.25;;;17.40;99.90;;;;;;5069859;28;20041;-55
2023/09/07 01:53:35;;;;;;;1.33;0.60;;;17.30;99.90;;;;;;5068911;28;20071;-56
2023/09/07 01:56:00;;;;;;;3.25;0.65;;;17.30;99.90;;;;;;5069243;28;20414;-56
2023/09/07 01:58:26;;;;;;;2.63;0.90;;;17.30;99.90;;;;;;5068061;28;20092;-55
2023/09/07 02:00:58;;;;;;;4.30;1.23;;;17.30;99.90;;;;;;5069862;28;20033;-54
2023/09/07 02:03:24;;;;;;;3.08;1.20;;;17.30;99.90;;;;;;5069326;28;20048;-54
2023/09/07 02:05:50;;;;;;;;;;;17.30;99.90;;;;;;5068267;28;20037;-55
2023/09/07 02:08:15;;;;;;;2.25;0.90;;;17.30;99.90;;;;;;5068642;28;19917;-57
2023/09/07 02:10:41;;;;;;;12.65;1.42;;;17.30;99.90;;;;;;5069090;28;20448;-57
2023/09/07 02:13:06;;;;;;;3.38;1.45;;;17.20;99.90;;;;;;5068458;28;20075;-54
2023/09/07 02:15:33;;;;;;;2.35;1.48;;;17.20;99.90;;;;;;5069475;28;20041;-56
2023/09/07 02:17:58;;;;;;;;;;;17.20;99.90;;;;;;5068694;28;20036;-55
2023/09/07 02:20:24;;;;;;;5.28;1.58;;;17.20;99.90;;;;;;5069875;28;19925;-57
2023/09/07 02:22:50;;;;;;;2.40;2.20;;;17.10;99.90;;;;;;5073094;28;20448;-56
2023/09/07 02:25:15;;;;;;;4.15;1.65;;;17.20;99.90;;;;;;5073510;28;20029;-55
2023/09/07 02:27:41;;;;;;;5.18;2.17;;;17.10;99.90;;;;;;5070950;28;20048;-56
2023/09/07 02:30:07;;;;;;;3.22;1.70;;;17.10;99.90;;;;;;5072594;28;20040;-55
2023/09/07 02:32:33;;;;;;;4.20;2.22;;;17.10;99.90;;;;;;5072864;28;20501;-57
2023/09/07 02:34:58;;;;;;;3.92;1.08;;;17.10;99.90;;;;;;5071951;28;20036;-57
2023/09/07 02:37:24;;;;;;;5.53;1.85;;;17.10;99.90;;;;;;5070306;28;20489;-56
2023/09/07 02:39:50;;;;;;;;;;;17.10;99.90;;;;;;5071840;28;20471;-55
2023/09/07 02:42:15;;;;;;;1.42;1.33;;;17.10;99.90;;;;;;5072529;28;20343;-55
2023/09/07 02:44:41;;;;;;;4.80;1.38;;;17.10;99.90;;;;;;5072281;28;20513;-56
2023/09/07 02:47:07;;;;;;;4.10;1.33;;;17.10;99.90;;;;;;5072580;28;20036;-56
2023/09/07 02:49:32;;;;;;;11.38;1.73;;;17.10;99.90;;;;;;5071456;28;20029;-57
2023/09/07 02:51:58;;;;;;;4.20;1.50;;;17.10;99.90;;;;;;5072895;28;20044;-57
2023/09/07 02:54:23;;;;;;;2.33;1.98;;;17.00;99.90;;;;;;5072139;28;20405;-57
2023/09/07 02:56:49;;;;;;;5.47;2.58;;;17.00;99.90;;;;;;5071308;28;20036;-56
2023/09/07 02:59:15;;;;;;;5.22;2.08;;;17.00;99.90;;;;;;5071211;28;20158;-56
2023/09/07 03:01:40;;;;;;;2.55;1.85;;;17.00;99.90;;;;;;5072669;28;20477;-56
2023/09/07 03:04:07;;;;;;;4.40;2.55;;;16.90;99.90;;;;;;5071911;28;20033;-57
2023/09/07 03:06:33;;;;;;;2.67;2.47;;;16.90;99.90;;;;;;5072298;28;20032;-55
2023/09/07 03:08:58;;;;;;;3.08;2.55;;;16.90;99.90;;;;;;5068672;28;20036;-57
2023/09/07 03:11:25;;;;;;;4.80;2.65;;;16.90;99.90;;;;;;5053370;28;20043;-57
2023/09/07 03:13:50;;;;;;;;;;;16.90;99.90;;;;;;5054250;28;20506;-55
2023/09/07 03:16:16;;;;;;;3.80;3.05;;;16.80;99.90;;;;;;5067056;28;20004;-56
2023/09/07 03:18:41;;;;;;;2.83;2.63;;;16.90;99.90;;;;;;5060491;28;20037;-54
2023/09/07 03:21:07;;;;;;;4.03;3.55;;;16.90;99.90;;;;;;5054647;28;20074;-58
2023/09/07 03:23:33;;;;;;;3.53;3.22;;;16.80;99.90;;;;;;5060924;28;20032;-56
2023/09/07 03:25:59;;;;;;;4.97;3.72;;;16.80;99.90;;;;;;5051611;28;20490;-54
2023/09/07 03:28:25;;;;;;;;;;;16.80;99.90;;;;;;5051772;28;20529;-56
2023/09/07 03:30:52;;;;;;;5.03;3.42;;;16.80;99.90;;;;;;5053444;28;20128;-56
2023/09/07 03:33:17;;;;;;;14.65;4.00;;;16.80;99.90;;;;;;5050997;28;20037;-57
2023/09/07 03:35:43;;;;;;;3.95;3.65;;;16.80;99.90;;;;;;5067765;28;20426;-54
2023/09/07 03:38:08;;;;;;;5.25;3.10;;;16.80;99.90;;;;;;5070905;28;20028;-57
2023/09/07 03:40:34;;;;;;;4.32;3.72;;;16.80;99.90;;;;;;5057993;28;20037;-54
2023/09/07 03:43:00;;;;;;;6.75;4.43;;;16.70;99.90;;;;;;5052037;28;20041;-54
2023/09/07 03:45:25;;;;;;;3.72;3.42;;;16.70;99.90;;;;;;5063297;28;20040;-54
2023/09/07 03:47:51;;;;;;;4.50;4.10;;;16.70;99.90;;;;;;5071639;28;20460;-56
2023/09/07 03:50:16;;;;;;;3.85;3.53;;;16.70;99.90;;;;;;5068027;28;20072;-57
2023/09/07 03:52:42;;;;;;;3.60;3.38;;;16.70;99.90;;;;;;5071271;28;20416;-57
2023/09/07 03:55:08;;;;;;;7.05;3.95;;;16.70;99.90;;;;;;5062645;28;20083;-54
2023/09/07 03:57:33;;;;;;;5.68;4.80;;;16.60;99.90;;;;;;5051811;28;20033;-56
2023/09/07 04:00:00;;;;;;;5.68;4.95;;;16.60;99.90;;;;;;5057119;28;20041;-58
2023/09/07 04:02:25;;;;;;;5.35;4.90;;;16.60;99.90;;;;;;5071226;28;20046;-57
2023/09/07 04:04:53;;;;;;;5.10;4.63;;;16.70;99.90;;;;;;5066493;28;20029;-56
2023/09/07 04:07:18;;;;;;;7.20;4.63;;;16.60;99.90;;;;;;5051715;28;20116;-57
2023/09/07 04:09:45;;;;;;;8.30;5.15;;;16.70;99.90;;;;;;5051299;28;20190;-55
2023/09/07 04:12:11;;;;;;;5.22;4.55;;;16.70;99.90;;;;;;5051631;28;20048;-55
2023/09/07 04:14:37;;;;;;;;;;;16.70;99.90;;;;;;5052811;28;20033;-53
2023/09/07 04:17:03;;;;;;;5.65;5.15;;;16.70;99.90;;;;;;5070968;28;19924;-55
2023/09/07 04:19:28;;;;;;;6.68;5.97;;;16.70;99.90;;;;;;5070334;28;20379;-54
2023/09/07 04:21:54;;;;;;;7.43;5.72;;;16.80;99.90;;;;;;5051346;28;20047;-56
2023/09/07 04:24:20;;;;;;;5.68;5.18;;;16.70;99.90;;;;;;5050321;28;20048;-56
2023/09/07 04:26:47;;;;;;;8.23;5.00;;;16.80;99.90;;;;;;5069209;28;20032;-57
2023/09/07 04:29:13;;;;;;;8.05;5.75;;;16.80;99.90;;;;;;5069983;28;20029;-56
2023/09/07 04:31:38;;;;;;;8.55;5.15;;;16.80;99.90;;;;;;5068004;28;20094;-57
2023/09/07 04:34:04;;;;;;;12.15;5.63;;;16.80;99.90;;;;;;5069282;28;20117;-57
2023/09/07 04:36:30;;;;;;;9.32;5.32;;;16.80;99.90;;;;;;5056146;28;20398;-56
2023/09/07 04:38:55;;;;;;;6.03;5.35;;;16.70;99.90;;;;;;5049538;28;20041;-56
2023/09/07 04:41:21;;;;;;;7.53;5.43;;;16.80;99.90;;;;;;5062500;28;20304;-58
2023/09/07 04:43:46;;;;;;;6.25;5.32;;;16.80;99.90;;;;;;5070149;28;20051;-56
2023/09/07 04:46:13;;;;;;;6.28;5.43;;;16.80;99.90;;;;;;5060381;28;20045;-57
2023/09/07 04:48:41;;;;;;;6.15;4.60;;;16.80;99.90;;;;;;5048617;28;20041;-57
2023/09/07 04:51:07;;;;;;;6.68;5.32;;;16.80;99.90;;;;;;5051604;28;20036;-58
2023/09/07 04:53:35;;;;;;;6.80;5.35;;;16.70;99.90;;;;;;5050330;28;20100;-57
2023/09/07 04:56:02;;;;;;;7.38;4.53;;;16.60;99.90;;;;;;5058141;28;20545;-55
2023/09/07 04:58:27;;;;;;;6.63;4.53;;;16.50;99.90;;;;;;5069831;28;20045;-55
2023/09/07 05:00:53;;;;;;;6.05;4.55;;;16.40;99.90;;;;;;5064052;28;20036;-55
2023/09/07 05:03:19;;;;;;;7.07;4.80;;;16.30;99.90;;;;;;5049959;28;20072;-57
2023/09/07 05:05:50;;;;;;;6.50;5.90;;;16.20;99.90;;;;;;5053511;28;20050;-56
2023/09/07 05:08:16;;;;;;;7.47;4.95;;;16.10;99.90;;;;;;5069800;28;20044;-57
2023/09/07 05:10:42;;;;;;;10.30;5.72;;;16.10;99.90;;;;;;5064735;28;20028;-57
2023/09/07 05:13:08;;;;;;;5.63;5.13;;;16.00;99.90;;;;;;5050382;28;20068;-56
2023/09/07 05:15:33;;;;;;;9.52;6.00;;;16.00;99.90;;;;;;5052261;28;20064;-57
2023/09/07 05:17:59;;;;;;;10.70;5.82;;;16.00;99.90;;;;;;5069522;28;20032;-56
2023/09/07 05:20:24;;;;;;;8.70;6.15;;;15.90;99.90;;;;;;5067110;28;20536;-57
2023/09/07 05:22:50;;;;;;;5.93;5.45;;;15.90;99.90;;;;;;5069631;28;20036;-56
2023/09/07 05:25:16;;;;;;;6.25;5.63;;;15.90;99.90;;;;;;5057341;28;20040;-57
2023/09/07 05:27:41;;;;;;;5.75;5.15;;;15.90;99.90;;;;;;5054863;28;20037;-55
2023/09/07 05:30:07;;;;;;;7.18;5.38;;;15.90;99.90;;;;;;5064582;28;20049;-55
2023/09/07 05:32:33;;;;;;;8.73;5.82;;;15.90;99.90;;;;;;5060930;28;20040;-54
2023/09/07 05:34:59;;;;;;;5.80;5.22;;;16.00;99.90;;;;;;5067609;28;20028;-54
2023/09/07 05:37:24;;;;;;;8.07;5.68;;;16.00;99.90;;;;;;5064715;28;20041;-56
2023/09/07 05:39:50;;;;;;;9.20;5.40;;;16.00;99.90;;;;;;5068936;28;20036;-56
2023/09/07 05:42:16;;;;;;;6.22;5.57;;;16.10;99.90;;;;;;5056870;28;20037;-54
2023/09/07 05:44:41;;;;;;;6.38;5.78;;;16.10;99.90;;;;;;5049364;28;20041;-56
2023/09/07 05:47:07;;;;;;;4.85;4.55;;;16.20;99.90;;;;;;5061362;28;20043;-56
2023/09/07 05:49:33;;;;;;;5.55;5.03;;;16.20;99.90;;;;;;5066017;28;20040;-57
2023/09/07 05:51:58;;;;;;;6.75;6.07;;;16.30;99.90;;;;;;5059423;28;20579;-56
2023/09/07 05:54:24;;;;;;;6.20;5.68;;;16.40;99.90;;;;;;5054952;28;20044;-57
2023/09/07 05:56:50;;;;;;;6.13;5.63;;;16.40;99.90;;;;;;5063655;28;20073;-53
2023/09/07 05:59:15;;;;;;;11.73;5.50;;;16.50;99.90;;;;;;5068788;28;20032;-56
2023/09/07 06:01:41;;;;;;;6.50;6.00;;;16.70;99.90;;;;;;5062313;28;20555;-56
2023/09/07 06:04:07;;;;;;;13.40;7.18;;;16.90;99.90;;;;;;5058712;28;20032;-57
2023/09/07 06:06:33;;;;;;;13.02;6.65;;;17.20;99.90;;;;;;5057404;28;20727;-56
2023/09/07 06:08:59;;;;;;;9.18;6.85;;;17.40;99.90;;;;;;5053044;28;20064;-55
2023/09/07 06:11:25;;;;;;;6.93;6.30;;;17.60;99.90;;;;;;5054239;28;20044;-56
2023/09/07 06:13:50;;;;;;;;;;;17.80;99.90;;;;;;5058886;28;20037;-55
2023/09/07 06:16:16;;;;;;;8.57;7.00;;;18.00;99.90;;;;;;5056158;28;19917;-57
2023/09/07 06:18:42;;;;;;;;;;;18.20;99.90;;;;;;5047921;28;20764;-58
2023/09/07 06:21:08;;;;;;;9.85;6.85;;;18.40;99.90;;;;;;5056128;28;19921;-56
2023/09/07 06:23:34;;;;;;;7.60;6.57;;;18.50;99.90;;;;;;5055565;28;20037;-55
2023/09/07 06:26:00;;;;;;;7.85;7.07;;;18.60;99.90;;;;;;5060472;28;20063;-56
2023/09/07 06:28:26;;;;;;;7.32;6.63;;;18.70;99.90;;;;;;5053015;28;20178;-55
2023/09/07 06:30:52;;;;;;;9.40;6.88;;;18.90;99.90;;;;;;5057215;28;20145;-58
2023/09/07 06:33:17;;;;;;;7.50;6.50;;;18.90;99.90;;;;;;5050776;28;20044;-56
2023/09/07 06:35:43;;;;;;;9.95;7.25;;;19.00;99.90;;;;;;5052538;28;20036;-54
2023/09/07 06:38:09;;;;;;;11.63;8.93;;;19.10;99.90;;;;;;5054244;28;20068;-54
2023/09/07 06:40:34;;;;;;;;;;;19.20;99.90;;;;;;5055748;28;20044;-57
2023/09/07 06:43:00;;;;;;;11.85;9.55;;;19.30;99.90;;;;;;5055197;28;20225;-57
2023/09/07 06:45:26;;;;;;;11.50;10.10;;;19.30;99.90;;;;;;5053454;28;20040;-57
2023/09/07 06:47:52;;;;;;;14.57;11.15;;;19.40;99.90;;;;;;5056554;28;20044;-58
2023/09/07 06:50:19;;;;;;;14.25;11.27;;;19.50;99.90;;;;;;5060947;28;20484;-57
2023/09/07 06:52:45;;;;;;;11.40;9.93;;;19.60;99.90;;;;;;5055329;28;20467;-58
2023/09/07 06:55:10;;;;;;;11.23;9.23;;;19.70;99.90;;;;;;5048158;28;20098;-55
2023/09/07 06:57:36;;;;;;;;;;;19.80;99.90;;;;;;5054864;28;20485;-57
2023/09/07 07:00:05;;;;;;;10.13;8.95;;;19.80;99.90;;;;;;5056439;28;19917;-54
2023/09/07 07:02:31;;;;;;;9.10;8.23;;;19.90;99.90;;;;;;5055321;28;20066;-55
2023/09/07 07:04:56;;;;;;;;;;;19.90;99.90;;;;;;5063996;28;20041;-57
2023/09/07 07:07:22;;;;;;;6.45;5.85;;;20.00;99.90;;;;;;5054164;28;19927;-56
2023/09/07 07:09:47;;;;;;;;;;;20.10;99.90;;;;;;5053193;28;20060;-57
2023/09/07 07:12:13;;;;;;;7.10;6.50;;;20.20;99.90;;;;;;5063362;28;20080;-57
2023/09/07 07:14:39;;;;;;;;;;;20.20;99.90;;;;;;5067394;28;20024;-57
2023/09/07 07:17:04;;;;;;;7.13;6.07;;;20.30;99.90;;;;;;5056777;28;19974;-57
2023/09/07 07:19:30;;;;;;;;;;;20.40;99.90;;;;;;5049687;28;20037;-55
2023/09/07 07:21:56;;;;;;;8.30;5.30;;;20.40;99.90;;;;;;5057730;28;19924;-57
2023/09/07 07:24:22;;;;;;;10.15;6.60;;;20.50;99.90;;;;;;5065360;28;20288;-54
2023/09/07 07:26:47;;;;;;;;;;;20.60;99.90;;;;;;5061516;28;20056;-57
2023/09/07 07:29:13;;;;;;;9.00;6.28;;;20.70;99.90;;;;;;5051092;28;20362;-54
2023/09/07 07:31:39;;;;;;;;;;;20.70;99.90;;;;;;5059648;28;20063;-57
2023/09/07 07:34:04;;;;;;;7.90;5.78;;;20.80;99.90;;;;;;5053378;28;20374;-56
2023/09/07 07:36:30;;;;;;;;;;;20.90;99.90;;;;;;5052161;28;20556;-57
2023/09/07 07:38:56;;;;;;;6.05;5.55;;;21.00;99.90;;;;;;5053964;28;19917;-56
2023/09/07 07:41:22;;;;;;;;;;;21.10;99.90;;;;;;5056666;28;20060;-56
2023/09/07 07:43:47;;;;;;;7.38;5.63;;;21.20;99.90;;;;;;5061099;28;19969;-54
2023/09/07 07:46:15;;;;;;;;;;;21.20;99.90;;;;;;5068866;28;20043;-56
2023/09/07 07:48:41;;;;;;;7.55;4.82;;;21.30;99.90;;;;;;5061750;28;19917;-57
2023/09/07 07:51:07;;;;;;;;;;;21.40;99.90;;;;;;5062001;28;20101;-57
2023/09/07 07:53:32;;;;;;;7.68;4.72;;;21.50;99.90;;;;;;5059380;28;19928;-57
2023/09/07 07:55:58;;;;;;;;;;;21.60;99.90;;;;;;5059223;28;20124;-56
2023/09/07 07:58:23;;;;;;;7.40;5.15;;;21.70;99.90;;;;;;5053024;28;19943;-57
2023/09/07 08:00:49;;;;;;;;;;;21.80;99.90;;;;;;5052590;28;20046;-56
2023/09/07 08:03:18;;;;;;;7.88;4.55;;;21.90;99.90;;;;;;5057338;28;19924;-57
2023/09/07 08:05:43;;;;;;;5.13;4.18;;;22.10;99.90;;;;;;5068136;28;20112;-57
2023/09/07 08:08:09;;;;;;;;;;;22.20;99.90;;;;;;5063360;28;20120;-54
2023/09/07 08:10:37;;;;;;;7.10;4.80;;;22.30;99.90;;;;;;5053571;28;20406;-56
2023/09/07 08:13:02;;;;;;;5.63;4.20;;;22.40;99.90;;;;;;5055687;28;20402;-55
2023/09/07 08:15:28;;;;;;;;;;;22.50;99.90;;;;;;5054833;28;20036;-55
2023/09/07 08:17:55;;;;;;;8.77;4.63;;;22.60;99.90;;;;;;5060188;28;19923;-56
2023/09/07 08:20:20;;;;;;;5.32;4.57;;;22.70;99.90;;;;;;5052155;28;20116;-58
2023/09/07 08:22:46;;;;;;;;;;;22.80;99.90;;;;;;5056628;28;20107;-56
2023/09/07 08:25:13;;;;;;;5.03;4.13;;;22.90;99.90;;;;;;5058750;28;19916;-57
2023/09/07 08:27:47;;;;;;;5.18;4.70;;;23.00;99.90;;;;;;5055988;28;20040;-54
2023/09/07 08:30:18;;;;;;;3.63;3.30;;;23.10;99.90;;;;;;5053265;28;20127;-58
2023/09/07 08:32:45;;;;;;;12.25;4.60;;;23.20;99.90;;;;;;5054583;28;20690;-58
2023/09/07 08:35:16;;;;;;;7.78;5.57;;;23.30;99.90;;;;;;5056218;28;20062;-55
2023/09/07 08:37:42;;;;;;;5.65;4.22;;;23.40;99.90;;;;;;5052737;28;20041;-56
2023/09/07 08:40:08;;;;;;;;;;;23.40;99.90;;;;;;5064738;28;20047;-56
2023/09/07 08:42:39;;;;;;;8.35;4.97;;;23.50;99.90;;;;;;5055479;28;20360;-56
2023/09/07 08:45:07;;;;;;;6.88;3.90;;;23.50;99.90;;;;;;5051227;28;20059;-57
2023/09/07 08:47:35;;;;;;;7.65;4.47;;;23.60;99.90;;;;;;5053281;28;20047;-57
2023/09/07 08:50:02;;;;;;;46.72;5.90;;;23.70;99.90;;;;;;5053595;28;20120;-56
2023/09/07 08:52:28;;;;;;;8.27;4.15;;;23.80;99.90;;;;;;5051678;28;20049;-58
2023/09/07 08:54:55;;;;;;;7.97;4.20;;;23.90;99.90;;;;;;5054787;28;20107;-58
2023/09/07 08:57:21;;;;;;;6.03;3.08;;;24.00;99.90;;;;;;5052723;28;20110;-58
2023/09/07 08:59:49;;;;;;;15.05;3.95;;;24.00;99.90;;;;;;5053872;28;20549;-59
2023/09/07 09:02:16;;;;;;;7.43;3.90;;;24.20;99.90;;;;;;5054538;28;20102;-57
2023/09/07 09:04:42;;;;;;;7.30;4.57;;;24.20;99.90;;;;;;5061916;28;20045;-57
2023/09/07 09:07:07;;;;;;;9.15;4.38;;;24.30;99.90;;;;;;5068490;28;20501;-57
2023/09/07 09:09:33;;;;;;;8.25;4.35;;;24.30;99.90;;;;;;5066399;28;20037;-56
2023/09/07 09:12:09;;;;;;;4.88;4.10;;;24.40;99.90;;;;;;5051674;28;20454;-58
2023/09/07 09:14:35;;;;;;;9.30;4.20;;;24.50;99.90;;;;;;5051533;28;20044;-55
2023/09/07 09:17:00;;;;;;;4.63;3.75;;;24.60;99.90;;;;;;5053345;28;20516;-59
2023/09/07 09:19:33;;;;;;;10.13;3.45;;;24.70;99.90;;;;;;5056417;28;20037;-57
2023/09/07 09:21:59;;;;;;;4.50;4.10;;;24.80;99.90;;;;;;5052988;28;20037;-57
2023/09/07 09:24:25;;;;;;;4.75;4.00;;;24.90;99.90;;;;;;5057166;28;20036;-55
2023/09/07 09:26:50;;;;;;;4.22;3.88;;;25.00;99.90;;;;;;5055335;28;20045;-58
2023/09/07 09:29:16;;;;;;;8.82;3.90;;;25.10;99.90;;;;;;5057653;28;20035;-54
2023/09/07 09:31:45;;;;;;;4.90;3.05;;;25.20;99.90;;;;;;5054714;28;20060;-54
2023/09/07 09:34:10;;;;;;;6.55;3.38;;;25.20;99.90;;;;;;5059109;28;20762;-58
2023/09/07 09:36:37;;;;;;;3.83;3.28;;;25.40;99.90;;;;;;5054819;28;20037;-59
2023/09/07 09:39:03;;;;;;;2.97;2.65;;;25.40;99.90;;;;;;5055177;28;20037;-60
2023/09/07 09:41:32;;;;;;;6.28;3.40;;;25.50;99.90;;;;;;5052156;28;20059;-59
2023/09/07 09:43:59;;;;;;;5.38;3.70;;;25.60;99.90;;;;;;5053095;28;20049;-60
2023/09/07 09:46:25;;;;;;;6.68;2.55;;;25.70;99.90;;;;;;5053496;28;20702;-59
2023/09/07 09:48:52;;;;;;;5.88;3.13;;;25.80;99.90;;;;;;5051773;28;20043;-60
2023/09/07 09:51:18;;;;;;;7.53;2.83;;;25.90;99.60;;;;;;5053619;28;20036;-60
2023/09/07 09:53:44;;;;;;;4.53;3.28;;;25.90;99.40;;;;;;5052055;28;20190;-59
2023/09/07 09:56:10;;;;;;;9.93;2.88;;;26.00;99.60;;;;;;5058704;28;20028;-60
2023/09/07 09:58:36;;;;;;;6.35;2.88;;;26.00;99.50;;;;;;5051746;28;20048;-60
2023/09/07 10:01:05;;;;;;;9.02;3.38;;;26.10;98.90;;;;;;5059343;28;20033;-59
2023/09/07 10:03:32;;;;;;;5.10;2.80;;;26.20;99.00;;;;;;5057303;28;20076;-59
2023/09/07 10:06:11;;;;;;;7.85;3.40;;;26.20;99.00;;;;;;5055921;28;20497;-60
2023/09/07 10:08:36;;;;;;;10.70;3.28;;;26.30;98.80;;;;;;5058050;28;20061;-60
2023/09/07 10:11:09;;;;;;;6.60;3.22;;;26.30;99.10;;;;;;5057903;28;20074;-59
2023/09/07 10:13:34;;;;;;;4.50;3.40;;;26.30;98.60;;;;;;5051024;28;20045;-60
2023/09/07 10:16:07;;;;;;;4.32;3.08;;;26.40;98.20;;;;;;5052846;28;20040;-59
2023/09/07 10:18:39;;;;;;;3.20;2.67;;;26.40;98.10;;;;;;5053762;28;20416;-60
2023/09/07 10:21:06;;;;;;;4.50;3.67;;;26.50;97.70;;;;;;5053613;28;20040;-59
2023/09/07 10:23:37;;;;;;;6.50;2.88;;;26.60;98.20;;;;;;5070021;28;20044;-60
2023/09/07 10:26:04;;;;;;;5.03;2.38;;;26.60;97.70;;;;;;5058150;28;20170;-59
2023/09/07 10:28:30;;;;;;;4.47;2.47;;;26.70;97.70;;;;;;5049732;28;20048;-58
2023/09/07 10:31:04;;;;;;;3.97;2.70;;;26.80;97.80;;;;;;5051173;28;20033;-59
2023/09/07 10:33:36;;;;;;;7.10;3.15;;;26.80;96.40;;;;;;5057876;28;20648;-58
2023/09/07 10:36:05;;;;;;;5.40;3.08;;;26.80;96.40;;;;;;5053386;28;20579;-58
2023/09/07 10:38:40;;;;;;;3.33;3.03;;;26.90;96.90;;;;;;5053601;28;20414;-58
2023/09/07 10:41:06;;;;;;;3.17;2.67;;;26.90;96.80;;;;;;5056391;28;20029;-55
2023/09/07 10:43:33;;;;;;;8.02;2.90;;;26.90;96.30;;;;;;5057385;28;20051;-57
2023/09/07 10:46:00;;;;;;;8.48;3.25;;;27.00;96.20;;;;;;5059448;28;20086;-56
2023/09/07 10:48:29;;;;;;;5.10;2.55;;;27.00;96.30;;;;;;5058926;28;20025;-58
2023/09/07 10:50:55;;;;;;;5.55;1.92;;;27.10;96.40;;;;;;5061612;28;20051;-57
2023/09/07 10:53:31;;;;;;;5.30;2.92;;;27.20;96.20;;;;;;5052709;28;20037;-58
2023/09/07 10:56:04;;;;;;;6.57;2.10;;;27.30;96.00;;;;;;5053536;28;20037;-60
2023/09/07 10:58:32;;;;;;;5.65;2.22;;;27.40;96.20;;;;;;5052451;28;20088;-59
2023/09/07 11:00:58;;;;;;;7.88;2.40;;;27.50;94.80;;;;;;5053901;28;20052;-58
2023/09/07 11:03:26;;;;;;;2.95;2.42;;;27.60;95.40;;;;;;5059882;28;20040;-57
2023/09/07 11:05:54;;;;;;;6.93;2.50;;;27.60;94.80;;;;;;5051918;28;20037;-55
2023/09/07 11:08:19;;;;;;;3.20;2.60;;;27.60;95.20;;;;;;5046789;28;20037;-59
2023/09/07 11:10:45;;;;;;;5.43;2.22;;;27.70;94.90;;;;;;5055527;28;20079;-61
2023/09/07 11:13:10;;;;;;;5.63;2.50;;;27.80;95.40;;;;;;5050688;28;20040;-61
2023/09/07 11:15:36;;;;;;;6.40;2.22;;;27.90;94.20;;;;;;5050046;28;20509;-56
2023/09/07 11:18:09;;;;;;;7.55;2.13;;;28.00;94.00;;;;;;5058073;28;20407;-58
2023/09/07 11:20:36;;;;;;;2.67;2.03;;;28.10;94.20;;;;;;5054815;28;20098;-59
2023/09/07 11:23:02;;;;;;;3.28;2.47;;;28.20;93.80;;;;;;5057998;28;20040;-56
2023/09/07 11:25:38;;;;;;;4.32;2.42;;;28.20;93.90;;;;;;5053650;28;20067;-58
2023/09/07 11:28:05;;;;;;;3.28;2.25;;;28.30;94.10;;;;;;5051705;28;20494;-61
2023/09/07 11:30:32;;;;;;;3.30;2.72;;;28.30;94.50;;;;;;5051987;28;20040;-57
2023/09/07 11:33:07;;;;;;;10.57;3.35;;;28.40;93.70;;;;;;5063118;28;20421;-56
2023/09/07 11:35:34;;;;;;;9.38;2.45;;;28.40;94.40;;;;;;5051495;28;20075;-60
2023/09/07 11:38:04;;;;;;;2.70;2.00;;;28.40;93.70;;;;;;5049287;28;20095;-57
2023/09/07 11:40:33;;;;;;;5.13;2.05;;;28.50;92.40;;;;;;5063159;28;20094;-58
2023/09/07 11:42:58;;;;;;;4.15;2.00;;;28.50;92.60;;;;;;5057432;28;20040;-60
2023/09/07 11:45:24;;;;;;;3.83;2.55;;;28.60;92.70;;;;;;5058183;28;20033;-58
2023/09/07 11:47:50;;;;;;;6.68;2.40;;;28.70;92.70;;;;;;5058363;28;20037;-59
2023/09/07 11:50:17;;;;;;;2.38;2.13;;;28.80;93.00;;;;;;5056446;28;20071;-58
2023/09/07 11:52:43;;;;;;;5.03;2.58;;;28.80;92.90;;;;;;5054088;28;20087;-59
2023/09/07 11:55:10;;;;;;;3.85;2.60;;;28.90;93.80;;;;;;5056633;28;20068;-59
2023/09/07 11:57:36;;;;;;;4.63;2.20;;;28.90;93.50;;;;;;5060043;28;20036;-58
2023/09/07 12:00:04;;;;;;;3.88;2.13;;;28.90;93.00;;;;;;5049950;28;20035;-58
2023/09/07 12:02:29;;;;;;;4.75;2.25;;;28.90;92.30;;;;;;5055200;28;20051;-58
2023/09/07 12:04:55;;;;;;;4.88;2.42;;;28.90;92.30;;;;;;5057798;28;20041;-59
2023/09/07 12:07:21;;;;;;;1.92;1.83;;;29.00;92.00;;;;;;5059718;28;20094;-60
2023/09/07 12:09:48;;;;;;;3.63;1.73;;;29.00;92.80;;;;;;5052763;28;20044;-58
2023/09/07 12:12:13;;;;;;;4.78;2.20;;;29.00;91.70;;;;;;5054361;28;20036;-57
2023/09/07 12:14:39;;;;;;;7.10;2.20;;;29.00;92.10;;;;;;5053476;28;20097;-57
2023/09/07 12:17:05;;;;;;;3.55;2.30;;;29.00;91.40;;;;;;5054931;28;20325;-59
2023/09/07 12:19:30;;;;;;;5.00;1.58;;;29.00;92.30;;;;;;5054672;28;20521;-60
2023/09/07 12:21:56;;;;;;;5.32;1.88;;;28.90;92.20;;;;;;5054723;28;20036;-58
2023/09/07 12:24:21;;;;;;;2.60;2.33;;;28.90;92.10;;;;;;5058433;28;20036;-59
2023/09/07 12:26:47;;;;;;;7.13;1.95;;;29.00;92.90;;;;;;5056688;28;20082;-59
2023/09/07 12:29:13;;;;;;;3.65;1.55;;;29.00;91.50;;;;;;5051758;28;20518;-58
2023/09/07 12:31:38;;;;;;;2.03;1.80;;;29.00;92.30;;;;;;5060509;28;20043;-55
2023/09/07 12:34:04;;;;;;;7.22;1.70;;;29.10;92.40;;;;;;5055669;28;20040;-57
2023/09/07 12:36:30;;;;;;;3.15;1.83;;;29.10;92.30;;;;;;5050833;28;20556;-58
2023/09/07 12:39:01;;;;;;;7.50;2.50;;;29.10;92.00;;;;;;5051481;28;20124;-59
2023/09/07 12:41:28;;;;;;;2.63;1.80;;;29.20;92.30;;;;;;5052765;28;20064;-58
2023/09/07 12:43:54;;;;;;;1.77;1.67;;;29.30;92.00;;;;;;5056512;28;20040;-59
2023/09/07 12:46:19;;;;;;;3.20;2.28;;;29.40;92.10;;;;;;5058207;28;20033;-57
2023/09/07 12:48:45;;;;;;;5.18;2.53;;;29.40;91.80;;;;;;5053183;28;20036;-58
2023/09/07 12:51:11;;;;;;;2.45;2.00;;;29.40;92.20;;;;;;5059412;28;20032;-58